Terminal Aerodrome Forecast
Issued by NWS Tulsa, OK

Home | Current Version | Previous Version | Text Only | Print | Product List | Glossary On
Versions: 1 2 3 4 5 6 7 8 9 10 11 12 13 14 15 16 17 18 19 20 21 22
000
FTUS44 KTSA 190700 AAA
TAFFSM
TAF AMD
KFSM 190701Z 1907/2006 00000KT P6SM BKN035
      TEMPO 1907/1910 5SM -TSRA BR BKN025CB
     FM191000 07003KT P6SM BKN035
     FM191800 07004KT P6SM VCTS BKN050CB
      TEMPO 1920/1924 2SM -TSRA BR BKN025CB
     FM200000 30012G22KT P6SM BKN050=

USA.gov is the U.S. government's official web portal to all federal, state and local government web resources and services.